createdAt,value
2019-02-24T00:00:48.824Z,1028.17
2019-02-24T00:01:48.838Z,1028.16
2019-02-24T00:02:49.447Z,1028.18
2019-02-24T00:03:48.994Z,1028.16
2019-02-24T00:04:49.045Z,1028.20
2019-02-24T00:05:49.058Z,1028.25
2019-02-24T00:06:49.143Z,1028.27
2019-02-24T00:07:49.155Z,1028.25
2019-02-24T00:09:49.297Z,1028.29
2019-02-24T00:10:49.301Z,1028.31
2019-02-24T00:11:49.339Z,1028.33
2019-02-24T00:12:49.425Z,1028.33
2019-02-24T00:13:49.505Z,1028.39
2019-02-24T00:14:49.545Z,1028.35
2019-02-24T00:15:49.527Z,1028.28
2019-02-24T00:16:49.638Z,1028.30
2019-02-24T00:17:49.635Z,1028.33
2019-02-24T00:18:49.742Z,1028.28
2019-02-24T00:19:49.719Z,1028.28
2019-02-24T00:20:49.801Z,1028.26
2019-02-24T00:21:49.874Z,1028.29
2019-02-24T00:22:49.873Z,1028.28
2019-02-24T00:23:50.009Z,1028.23
2019-02-24T00:24:50.034Z,1028.27
2019-02-24T00:25:50.023Z,1028.25
2019-02-24T00:26:50.146Z,1028.28
2019-02-24T00:27:50.159Z,1028.27
2019-02-24T00:28:50.294Z,1028.26
2019-02-24T00:29:50.228Z,1028.20
2019-02-24T00:30:50.267Z,1028.14
2019-02-24T00:31:50.347Z,1028.17
2019-02-24T00:32:50.427Z,1028.20
2019-02-24T00:33:50.492Z,1028.17
2019-02-24T00:34:50.469Z,1028.17
2019-02-24T00:35:50.528Z,1028.18
2019-02-24T00:36:50.576Z,1028.17
2019-02-24T00:37:50.630Z,1028.16
2019-02-24T00:38:50.738Z,1028.15
2019-02-24T00:39:50.749Z,1028.13
2019-02-24T00:40:50.787Z,1028.12
2019-02-24T00:41:50.834Z,1028.13
2019-02-24T00:42:50.898Z,1028.15
2019-02-24T00:43:51.009Z,1028.16
2019-02-24T00:44:50.962Z,1028.20
2019-02-24T00:45:51.057Z,1028.19
2019-02-24T00:46:51.064Z,1028.22
2019-02-24T00:47:51.197Z,1028.21
2019-02-24T00:48:51.298Z,1028.20
2019-02-24T00:49:51.288Z,1028.21
2019-02-24T00:50:51.290Z,1028.22
2019-02-24T00:51:51.373Z,1028.24
2019-02-24T00:52:51.426Z,1028.21
2019-02-24T00:53:51.483Z,1028.17
2019-02-24T00:54:51.533Z,1028.16
2019-02-24T00:55:51.574Z,1028.19
2019-02-24T00:56:51.596Z,1028.20
2019-02-24T00:57:51.641Z,1028.20
2019-02-24T00:58:51.658Z,1028.20
2019-02-24T00:59:56.276Z,1028.21
2019-02-24T01:00:51.794Z,1028.21
2019-02-24T01:01:51.818Z,1028.18
2019-02-24T01:02:51.896Z,1028.19
2019-02-24T01:03:51.921Z,1028.19
2019-02-24T01:04:51.958Z,1028.19
2019-02-24T01:05:52.096Z,1028.15
2019-02-24T01:06:52.122Z,1028.16
2019-02-24T01:07:52.181Z,1028.17
2019-02-24T01:08:52.240Z,1028.19
2019-02-24T01:09:52.320Z,1028.19
2019-02-24T01:10:52.263Z,1028.17
2019-02-24T01:11:52.382Z,1028.20
2019-02-24T01:12:52.353Z,1028.20
2019-02-24T01:13:53.974Z,1028.24
2019-02-24T01:14:52.547Z,1028.22
2019-02-24T01:15:52.499Z,1028.27
2019-02-24T01:16:52.566Z,1028.23
2019-02-24T01:17:52.677Z,1028.26
2019-02-24T01:18:52.656Z,1028.25
2019-02-24T01:19:52.757Z,1028.18
2019-02-24T01:20:52.776Z,1028.21
2019-02-24T01:21:52.884Z,1028.21
2019-02-24T01:22:52.879Z,1028.21
2019-02-24T01:23:52.894Z,1028.22
2019-02-24T01:24:53.034Z,1028.25
2019-02-24T01:25:52.998Z,1028.24
2019-02-24T01:26:53.067Z,1028.23
2019-02-24T01:27:53.095Z,1028.24
2019-02-24T01:28:53.191Z,1028.22
2019-02-24T01:29:53.325Z,1028.19
2019-02-24T01:30:53.240Z,1028.17
2019-02-24T01:31:53.349Z,1028.18
2019-02-24T01:32:53.396Z,1028.17
2019-02-24T01:33:53.589Z,1028.14
2019-02-24T01:34:53.459Z,1028.13
2019-02-24T01:35:53.550Z,1028.18
2019-02-24T01:36:53.613Z,1028.15
2019-02-24T01:37:53.587Z,1028.15
2019-02-24T01:38:53.690Z,1028.11
2019-02-24T01:39:53.718Z,1028.13
2019-02-24T01:40:53.736Z,1028.12
2019-02-24T01:41:53.870Z,1028.16
2019-02-24T01:42:53.837Z,1028.13
2019-02-24T01:43:53.882Z,1028.14
2019-02-24T01:44:53.967Z,1028.10
2019-02-24T01:45:54.015Z,1028.10
2019-02-24T01:46:54.116Z,1028.10
2019-02-24T01:47:54.080Z,1028.10
2019-02-24T01:48:54.200Z,1028.08
2019-02-24T01:49:54.306Z,1028.04
2019-02-24T01:50:54.273Z,1028.04
2019-02-24T01:51:54.330Z,1027.98
2019-02-24T01:52:54.381Z,1027.97
2019-02-24T01:53:54.431Z,1027.97
2019-02-24T01:54:54.485Z,1027.94
2019-02-24T01:55:54.474Z,1027.96
2019-02-24T01:56:54.522Z,1027.95
2019-02-24T01:57:54.573Z,1027.93
2019-02-24T01:58:54.645Z,1027.90
2019-02-24T01:59:54.671Z,1027.88
2019-02-24T02:00:54.721Z,1027.86
2019-02-24T02:01:54.770Z,1027.84
2019-02-24T02:02:54.819Z,1027.83
2019-02-24T02:03:54.869Z,1027.80
2019-02-24T02:04:54.923Z,1027.81
2019-02-24T02:05:55.058Z,1027.80
2019-02-24T02:06:55.097Z,1027.79
2019-02-24T02:07:55.144Z,1027.80
2019-02-24T02:08:55.175Z,1027.78
2019-02-24T02:09:55.166Z,1027.78
2019-02-24T02:10:55.213Z,1027.79
2019-02-24T02:11:55.263Z,1027.77
2019-02-24T02:12:55.315Z,1027.74
2019-02-24T02:13:55.359Z,1027.76
2019-02-24T02:14:55.410Z,1027.74
2019-02-24T02:15:55.553Z,1027.72
2019-02-24T02:16:55.517Z,1027.78
2019-02-24T02:17:55.556Z,1027.78
2019-02-24T02:18:55.607Z,1027.80
2019-02-24T02:19:55.656Z,1027.82
2019-02-24T02:20:55.706Z,1027.80
2019-02-24T02:21:55.752Z,1027.79
2019-02-24T02:22:55.804Z,1027.82
2019-02-24T02:23:55.853Z,1027.84
2019-02-24T02:24:55.900Z,1027.80
2019-02-24T02:25:55.949Z,1027.82
2019-02-24T02:26:55.999Z,1027.84
2019-02-24T02:27:56.047Z,1027.88
2019-02-24T02:28:56.666Z,1027.90
2019-02-24T02:29:56.145Z,1027.88
2019-02-24T02:30:56.871Z,1027.88
2019-02-24T02:31:56.862Z,1027.84
2019-02-24T02:32:56.843Z,1027.88
2019-02-24T02:33:56.344Z,1027.82
2019-02-24T02:34:56.392Z,1027.86
2019-02-24T02:35:56.442Z,1027.87
2019-02-24T02:36:56.508Z,1027.82
2019-02-24T02:37:56.537Z,1027.80
2019-02-24T02:38:56.586Z,1027.84
2019-02-24T02:39:56.638Z,1027.80
2019-02-24T02:40:56.686Z,1027.80
2019-02-24T02:41:56.734Z,1027.82
2019-02-24T02:42:56.783Z,1027.79
2019-02-24T02:43:56.834Z,1027.75
2019-02-24T02:44:56.881Z,1027.82
2019-02-24T02:45:56.930Z,1027.85
2019-02-24T02:46:56.980Z,1027.82
2019-02-24T02:47:57.029Z,1027.82
2019-02-24T02:48:57.076Z,1027.82
2019-02-24T02:49:57.126Z,1027.81
2019-02-24T02:50:57.177Z,1027.81
2019-02-24T02:51:57.224Z,1027.76
2019-02-24T02:52:57.273Z,1027.80
2019-02-24T02:53:57.321Z,1027.72
2019-02-24T02:54:57.373Z,1027.74
2019-02-24T02:55:57.421Z,1027.74
2019-02-24T02:56:57.468Z,1027.80
2019-02-24T02:57:57.519Z,1027.82
2019-02-24T02:58:57.571Z,1027.80
2019-02-24T02:59:57.617Z,1027.78
2019-02-24T03:00:57.667Z,1027.79
2019-02-24T03:01:57.716Z,1027.79
2019-02-24T03:02:57.765Z,1027.77
2019-02-24T03:03:57.814Z,1027.78
2019-02-24T03:04:57.862Z,1027.79
2019-02-24T03:05:57.911Z,1027.78
2019-02-24T03:06:57.961Z,1027.75
2019-02-24T03:07:58.009Z,1027.74
2019-02-24T03:08:58.058Z,1027.79
2019-02-24T03:09:58.108Z,1027.76
2019-02-24T03:10:58.157Z,1027.81
2019-02-24T03:11:58.207Z,1027.78
2019-02-24T03:12:58.256Z,1027.80
2019-02-24T03:13:58.354Z,1027.83
2019-02-24T03:14:58.352Z,1027.79
2019-02-24T03:15:58.404Z,1027.81
2019-02-24T03:16:58.450Z,1027.79
2019-02-24T03:17:58.500Z,1027.80
2019-02-24T03:18:58.551Z,1027.80
2019-02-24T03:19:58.657Z,1027.80
2019-02-24T03:20:58.648Z,1027.77
2019-02-24T03:21:58.701Z,1027.79
2019-02-24T03:22:58.746Z,1027.83
2019-02-24T03:23:58.795Z,1027.82
2019-02-24T03:24:58.843Z,1027.81
2019-02-24T03:25:58.895Z,1027.82
2019-02-24T03:26:58.944Z,1027.85
2019-02-24T03:27:58.992Z,1027.81
2019-02-24T03:29:04.151Z,1027.85
2019-02-24T03:29:59.088Z,1027.88
2019-02-24T03:30:59.139Z,1027.86
2019-02-24T03:31:59.188Z,1027.84
2019-02-24T03:32:59.249Z,1027.84
2019-02-24T03:33:59.292Z,1027.83
2019-02-24T03:34:59.335Z,1027.81
2019-02-24T03:35:59.385Z,1027.85
2019-02-24T03:36:59.435Z,1027.83
2019-02-24T03:37:59.481Z,1027.81
2019-02-24T03:38:59.531Z,1027.82
2019-02-24T03:39:59.580Z,1027.81
2019-02-24T03:40:59.628Z,1027.81
2019-02-24T03:41:59.679Z,1027.79
2019-02-24T03:42:59.725Z,1027.83
2019-02-24T03:43:59.775Z,1027.79
2019-02-24T03:44:59.823Z,1027.81
2019-02-24T03:45:59.873Z,1027.83
2019-02-24T03:46:59.921Z,1027.82
2019-02-24T03:47:59.971Z,1027.85
2019-02-24T03:49:00.645Z,1027.85
2019-02-24T03:50:00.184Z,1027.84
2019-02-24T03:51:00.118Z,1027.88
2019-02-24T03:52:00.186Z,1027.83
2019-02-24T03:53:00.215Z,1027.86
2019-02-24T03:54:00.264Z,1027.84
2019-02-24T03:55:00.416Z,1027.86
2019-02-24T03:56:00.363Z,1027.88
2019-02-24T03:57:00.415Z,1027.89
2019-02-24T03:58:00.460Z,1027.91
2019-02-24T03:59:00.510Z,1027.88
2019-02-24T04:00:00.574Z,1027.90
2019-02-24T04:01:00.604Z,1027.86
2019-02-24T04:02:00.656Z,1027.89
2019-02-24T04:03:00.713Z,1027.88
2019-02-24T04:04:00.752Z,1027.87
2019-02-24T04:05:00.802Z,1027.85
2019-02-24T04:06:00.850Z,1027.83
2019-02-24T04:07:00.900Z,1027.81
2019-02-24T04:08:00.955Z,1027.83
2019-02-24T04:09:00.996Z,1027.77
2019-02-24T04:10:01.047Z,1027.84
2019-02-24T04:11:01.099Z,1027.82
2019-02-24T04:12:01.731Z,1027.84
2019-02-24T04:13:01.193Z,1027.82
2019-02-24T04:14:01.241Z,1027.84
2019-02-24T04:15:01.292Z,1027.82
2019-02-24T04:16:01.339Z,1027.83
2019-02-24T04:17:01.387Z,1027.80
2019-02-24T04:18:01.437Z,1027.83
2019-02-24T04:19:01.485Z,1027.80
2019-02-24T04:20:01.535Z,1027.80
2019-02-24T04:21:01.581Z,1027.81
2019-02-24T04:22:01.631Z,1027.76
2019-02-24T04:23:01.680Z,1027.80
2019-02-24T04:24:01.729Z,1027.79
2019-02-24T04:25:01.777Z,1027.82
2019-02-24T04:26:01.827Z,1027.77
2019-02-24T04:27:01.883Z,1027.80
2019-02-24T04:28:01.924Z,1027.79
2019-02-24T04:29:01.973Z,1027.79
2019-02-24T04:30:02.023Z,1027.77
2019-02-24T04:31:02.070Z,1027.76
2019-02-24T04:32:02.131Z,1027.76
2019-02-24T04:33:02.174Z,1027.75
2019-02-24T04:34:02.219Z,1027.78
2019-02-24T04:35:02.266Z,1027.73
2019-02-24T04:36:02.314Z,1027.74
2019-02-24T04:37:02.363Z,1027.73
2019-02-24T04:38:02.414Z,1027.74
2019-02-24T04:39:02.461Z,1027.80
2019-02-24T04:40:02.510Z,1027.78
2019-02-24T04:41:02.558Z,1027.80
2019-02-24T04:42:02.607Z,1027.84
2019-02-24T04:43:02.656Z,1027.79
2019-02-24T04:44:02.706Z,1027.80
2019-02-24T04:45:02.754Z,1027.77
2019-02-24T04:46:02.802Z,1027.71
2019-02-24T04:47:02.853Z,1027.74
2019-02-24T04:48:02.900Z,1027.72
2019-02-24T04:49:02.955Z,1027.74
2019-02-24T04:50:02.997Z,1027.73
2019-02-24T04:51:03.047Z,1027.73
2019-02-24T04:52:03.101Z,1027.73
2019-02-24T04:53:03.144Z,1027.73
2019-02-24T04:54:03.194Z,1027.73
2019-02-24T04:55:03.242Z,1027.78
2019-02-24T04:56:03.292Z,1027.77
2019-02-24T04:57:03.345Z,1027.81
2019-02-24T04:58:03.388Z,1027.80
2019-02-24T04:59:03.440Z,1027.78
2019-02-24T05:00:03.489Z,1027.81
2019-02-24T05:01:03.555Z,1027.79
2019-02-24T05:02:03.586Z,1027.82
2019-02-24T05:03:03.637Z,1027.77
2019-02-24T05:04:03.683Z,1027.79
2019-02-24T05:05:03.731Z,1027.78
2019-02-24T05:06:03.783Z,1027.78
2019-02-24T05:07:03.833Z,1027.78
2019-02-24T05:08:03.884Z,1027.77
2019-02-24T05:09:03.933Z,1027.77
2019-02-24T05:10:03.979Z,1027.78
2019-02-24T05:11:04.023Z,1027.75
2019-02-24T05:12:04.078Z,1027.75
2019-02-24T05:13:04.121Z,1027.77
2019-02-24T05:14:04.178Z,1027.78
2019-02-24T05:15:04.220Z,1027.80
2019-02-24T05:16:04.268Z,1027.80
2019-02-24T05:17:04.324Z,1027.77
2019-02-24T05:18:04.367Z,1027.77
2019-02-24T05:19:04.415Z,1027.75
2019-02-24T05:20:04.463Z,1027.70
2019-02-24T05:21:04.511Z,1027.71
2019-02-24T05:22:04.562Z,1027.69
2019-02-24T05:23:04.608Z,1027.68
2019-02-24T05:24:04.659Z,1027.68
2019-02-24T05:25:04.707Z,1027.64
2019-02-24T05:26:04.758Z,1027.61
2019-02-24T05:27:04.805Z,1027.59
2019-02-24T05:28:04.854Z,1027.62
2019-02-24T05:29:04.905Z,1027.65
2019-02-24T05:30:05.200Z,1027.61
2019-02-24T05:31:05.670Z,1027.61
2019-02-24T05:32:05.054Z,1027.66
2019-02-24T05:33:05.097Z,1027.68
2019-02-24T05:34:05.165Z,1027.73
2019-02-24T05:35:05.194Z,1027.71
2019-02-24T05:36:05.243Z,1027.72
2019-02-24T05:37:05.292Z,1027.70
2019-02-24T05:38:05.340Z,1027.72
2019-02-24T05:39:05.389Z,1027.73
2019-02-24T05:40:05.440Z,1027.67
2019-02-24T05:41:05.486Z,1027.72
2019-02-24T05:42:05.537Z,1027.72
2019-02-24T05:43:05.584Z,1027.69
2019-02-24T05:44:05.636Z,1027.70
2019-02-24T05:45:05.680Z,1027.72
2019-02-24T05:46:05.728Z,1027.71
2019-02-24T05:47:05.778Z,1027.72
2019-02-24T05:48:05.828Z,1027.70
2019-02-24T05:49:05.878Z,1027.71
2019-02-24T05:50:05.924Z,1027.70
2019-02-24T05:51:05.973Z,1027.70
2019-02-24T05:52:06.038Z,1027.67
2019-02-24T05:53:06.070Z,1027.69
2019-02-24T05:54:06.117Z,1027.68
2019-02-24T05:55:06.169Z,1027.70
2019-02-24T05:56:06.215Z,1027.66
2019-02-24T05:57:06.265Z,1027.63
2019-02-24T05:58:06.314Z,1027.61
2019-02-24T05:59:06.364Z,1027.64
2019-02-24T06:00:06.410Z,1027.64
2019-02-24T06:01:06.458Z,1027.63
2019-02-24T06:02:06.508Z,1027.65
2019-02-24T06:03:06.556Z,1027.62
2019-02-24T06:04:06.606Z,1027.60
2019-02-24T06:05:06.653Z,1027.60
2019-02-24T06:06:06.702Z,1027.64
2019-02-24T06:07:06.750Z,1027.59
2019-02-24T06:08:06.799Z,1027.60
2019-02-24T06:09:06.848Z,1027.60
2019-02-24T06:10:06.898Z,1027.59
2019-02-24T06:11:06.945Z,1027.62
2019-02-24T06:12:06.993Z,1027.59
2019-02-24T06:13:07.044Z,1027.61
2019-02-24T06:14:07.090Z,1027.64
2019-02-24T06:15:07.142Z,1027.61
2019-02-24T06:16:07.190Z,1027.63
2019-02-24T06:17:07.237Z,1027.61
2019-02-24T06:18:07.286Z,1027.57
2019-02-24T06:19:07.334Z,1027.61
2019-02-24T06:20:07.384Z,1027.59
2019-02-24T06:21:07.430Z,1027.56
2019-02-24T06:22:07.484Z,1027.61
2019-02-24T06:23:07.535Z,1027.63
2019-02-24T06:24:07.578Z,1027.61
2019-02-24T06:25:07.627Z,1027.60
2019-02-24T06:26:07.675Z,1027.60
2019-02-24T06:27:07.723Z,1027.59
2019-02-24T06:28:07.772Z,1027.60
2019-02-24T06:29:07.821Z,1027.57
2019-02-24T06:30:07.872Z,1027.60
2019-02-24T06:31:07.919Z,1027.66
2019-02-24T06:32:07.967Z,1027.69
2019-02-24T06:33:08.015Z,1027.68
2019-02-24T06:34:08.064Z,1027.64
2019-02-24T06:35:08.120Z,1027.67
2019-02-24T06:36:08.161Z,1027.70
2019-02-24T06:37:08.217Z,1027.71
2019-02-24T06:38:08.258Z,1027.72
2019-02-24T06:39:08.309Z,1027.69
2019-02-24T06:40:08.363Z,1027.67
2019-02-24T06:41:08.404Z,1027.70
2019-02-24T06:42:08.452Z,1027.71
2019-02-24T06:43:08.504Z,1027.70
2019-02-24T06:44:08.551Z,1027.70
2019-02-24T06:45:08.597Z,1027.70
2019-02-24T06:46:08.648Z,1027.73
2019-02-24T06:47:08.699Z,1027.74
2019-02-24T06:48:08.745Z,1027.77
2019-02-24T06:49:08.792Z,1027.76
2019-02-24T06:50:08.840Z,1027.80
2019-02-24T06:51:08.891Z,1027.81
2019-02-24T06:52:08.939Z,1027.81
2019-02-24T06:53:08.988Z,1027.83
2019-02-24T06:54:09.055Z,1027.78
2019-02-24T06:55:09.084Z,1027.81
2019-02-24T06:56:09.134Z,1027.79
2019-02-24T06:57:09.180Z,1027.77
2019-02-24T06:58:09.230Z,1027.80
2019-02-24T06:59:09.280Z,1027.82
2019-02-24T07:00:14.130Z,1027.83
2019-02-24T07:01:09.375Z,1027.89
2019-02-24T07:02:09.425Z,1027.87
2019-02-24T07:03:09.495Z,1027.91
2019-02-24T07:04:09.522Z,1027.94
2019-02-24T07:05:09.570Z,1027.93
2019-02-24T07:06:09.618Z,1027.94
2019-02-24T07:07:09.667Z,1027.98
2019-02-24T07:08:09.716Z,1027.97
2019-02-24T07:09:09.764Z,1027.99
2019-02-24T07:10:09.814Z,1028.00
2019-02-24T07:11:09.868Z,1028.00
2019-02-24T07:12:09.910Z,1028.00
2019-02-24T07:13:09.959Z,1028.01
2019-02-24T07:14:10.034Z,1028.03
2019-02-24T07:15:10.056Z,1028.07
2019-02-24T07:16:10.106Z,1028.06
2019-02-24T07:17:10.153Z,1028.08
2019-02-24T07:18:10.202Z,1028.09
2019-02-24T07:19:10.251Z,1028.08
2019-02-24T07:20:10.300Z,1028.12
2019-02-24T07:21:10.347Z,1028.14
2019-02-24T07:22:10.395Z,1028.14
2019-02-24T07:23:10.446Z,1028.18
2019-02-24T07:24:10.496Z,1028.19
2019-02-24T07:25:10.543Z,1028.22
2019-02-24T07:26:10.593Z,1028.19
2019-02-24T07:27:10.892Z,1028.22
2019-02-24T07:28:10.693Z,1028.22
2019-02-24T07:29:10.737Z,1028.24
2019-02-24T07:30:10.786Z,1028.21
2019-02-24T07:31:10.904Z,1028.22
2019-02-24T07:32:10.883Z,1028.21
2019-02-24T07:33:12.414Z,1028.23
2019-02-24T07:34:10.981Z,1028.23
2019-02-24T07:35:11.029Z,1028.23
2019-02-24T07:36:11.082Z,1028.23
2019-02-24T07:37:13.192Z,1028.21
2019-02-24T07:38:11.174Z,1028.19
2019-02-24T07:39:11.223Z,1028.22
2019-02-24T07:40:11.272Z,1028.27
2019-02-24T07:41:11.324Z,1028.24
2019-02-24T07:42:11.369Z,1028.24
2019-02-24T07:43:11.420Z,1028.22
2019-02-24T07:44:11.467Z,1028.23
2019-02-24T07:45:11.516Z,1028.20
2019-02-24T07:46:11.565Z,1028.19
2019-02-24T07:47:11.613Z,1028.23
2019-02-24T07:48:11.661Z,1028.20
2019-02-24T07:49:11.711Z,1028.24
2019-02-24T07:50:11.760Z,1028.25
2019-02-24T07:51:12.451Z,1028.26
2019-02-24T07:52:11.858Z,1028.22
2019-02-24T07:53:11.907Z,1028.22
2019-02-24T07:54:11.955Z,1028.25
2019-02-24T07:55:12.004Z,1028.23
2019-02-24T07:56:12.054Z,1028.28
2019-02-24T07:57:12.103Z,1028.27
2019-02-24T07:58:12.151Z,1028.29
2019-02-24T07:59:12.201Z,1028.30
2019-02-24T08:00:12.251Z,1028.29
2019-02-24T08:01:12.298Z,1028.30
2019-02-24T08:02:12.347Z,1028.30
2019-02-24T08:03:12.395Z,1028.25
2019-02-24T08:04:12.445Z,1028.23
2019-02-24T08:05:12.552Z,1028.23
2019-02-24T08:06:12.544Z,1028.24
2019-02-24T08:07:12.593Z,1028.25
2019-02-24T08:08:16.395Z,1028.23
2019-02-24T08:09:12.691Z,1028.27
2019-02-24T08:10:12.740Z,1028.28
2019-02-24T08:11:12.788Z,1028.27
2019-02-24T08:12:12.838Z,1028.25
2019-02-24T08:13:12.886Z,1028.28
2019-02-24T08:14:12.936Z,1028.29
2019-02-24T08:15:13.366Z,1028.31
2019-02-24T08:16:13.035Z,1028.30
2019-02-24T08:17:13.084Z,1028.35
2019-02-24T08:18:13.133Z,1028.35
2019-02-24T08:19:13.182Z,1028.39
2019-02-24T08:20:13.233Z,1028.41
2019-02-24T08:21:13.282Z,1028.43
2019-02-24T08:22:13.329Z,1028.44
2019-02-24T08:23:13.382Z,1028.45
2019-02-24T08:24:13.429Z,1028.44
2019-02-24T08:25:13.478Z,1028.45
2019-02-24T08:26:13.527Z,1028.46
2019-02-24T08:27:13.577Z,1028.48
2019-02-24T08:28:13.642Z,1028.50
2019-02-24T08:29:13.677Z,1028.53
2019-02-24T08:30:13.726Z,1028.55
2019-02-24T08:31:13.775Z,1028.48
2019-02-24T08:32:13.826Z,1028.48
2019-02-24T08:33:13.872Z,1028.51
2019-02-24T08:34:13.923Z,1028.49
2019-02-24T08:35:13.981Z,1028.50
2019-02-24T08:36:14.024Z,1028.47
2019-02-24T08:37:14.072Z,1028.46
2019-02-24T08:38:14.734Z,1028.46
2019-02-24T08:39:14.171Z,1028.47
2019-02-24T08:40:14.223Z,1028.45
2019-02-24T08:41:14.272Z,1028.45
2019-02-24T08:42:14.321Z,1028.44
2019-02-24T08:43:14.372Z,1028.46
2019-02-24T08:44:14.421Z,1028.46
2019-02-24T08:45:14.470Z,1028.46
2019-02-24T08:46:14.519Z,1028.41
2019-02-24T08:47:14.572Z,1028.42
2019-02-24T08:48:14.621Z,1028.44
2019-02-24T08:49:14.670Z,1028.47
2019-02-24T08:50:14.721Z,1028.46
2019-02-24T08:51:14.770Z,1028.43
2019-02-24T08:52:14.821Z,1028.47
2019-02-24T08:53:14.872Z,1028.50
2019-02-24T08:54:14.924Z,1028.52
2019-02-24T08:55:14.971Z,1028.49
2019-02-24T08:56:15.020Z,1028.51
2019-02-24T08:57:15.070Z,1028.48
2019-02-24T08:58:15.124Z,1028.54
2019-02-24T08:59:15.171Z,1028.53
2019-02-24T09:00:15.224Z,1028.56
2019-02-24T09:01:15.271Z,1028.56
2019-02-24T09:02:15.323Z,1028.53
2019-02-24T09:03:15.374Z,1028.51
2019-02-24T09:04:15.426Z,1028.53
2019-02-24T09:05:15.484Z,1028.50
2019-02-24T09:06:15.527Z,1028.52
2019-02-24T09:07:15.580Z,1028.48
2019-02-24T09:08:15.628Z,1028.51
2019-02-24T09:09:15.679Z,1028.52
2019-02-24T09:10:15.730Z,1028.54
2019-02-24T09:11:15.779Z,1028.54
2019-02-24T09:12:15.831Z,1028.52
2019-02-24T09:13:15.881Z,1028.51
2019-02-24T09:14:15.931Z,1028.54
2019-02-24T09:15:15.982Z,1028.49
2019-02-24T09:16:16.034Z,1028.53
2019-02-24T09:17:16.084Z,1028.54
2019-02-24T09:18:16.136Z,1028.52
2019-02-24T09:19:16.192Z,1028.53
2019-02-24T09:20:16.268Z,1028.52
2019-02-24T09:21:16.289Z,1028.56
2019-02-24T09:22:16.339Z,1028.51
2019-02-24T09:23:16.436Z,1028.51
2019-02-24T09:24:16.444Z,1028.56
2019-02-24T09:25:16.493Z,1028.53
2019-02-24T09:26:16.543Z,1028.60
2019-02-24T09:27:16.595Z,1028.57
2019-02-24T09:28:16.649Z,1028.55
2019-02-24T09:29:16.698Z,1028.53
2019-02-24T09:30:16.753Z,1028.50
2019-02-24T09:31:16.802Z,1028.53
2019-02-24T09:32:16.868Z,1028.44
2019-02-24T09:33:16.905Z,1028.43
2019-02-24T09:34:16.955Z,1028.43
2019-02-24T09:35:17.007Z,1028.38
2019-02-24T09:36:17.058Z,1028.44
2019-02-24T09:37:17.109Z,1028.41
2019-02-24T09:38:17.163Z,1028.42
2019-02-24T09:39:17.215Z,1028.44
2019-02-24T09:40:17.266Z,1028.44
2019-02-24T09:41:17.316Z,1028.47
2019-02-24T09:42:17.369Z,1028.47
2019-02-24T09:43:17.420Z,1028.46
2019-02-24T09:44:17.473Z,1028.48
2019-02-24T09:45:17.524Z,1028.48
2019-02-24T09:46:17.576Z,1028.47
2019-02-24T09:47:17.629Z,1028.52
2019-02-24T09:48:17.681Z,1028.51
2019-02-24T09:49:17.733Z,1028.51
2019-02-24T09:50:17.785Z,1028.52
2019-02-24T09:51:17.836Z,1028.49
2019-02-24T09:52:17.889Z,1028.47
2019-02-24T09:53:17.940Z,1028.47
2019-02-24T09:54:18.007Z,1028.46
2019-02-24T09:55:18.048Z,1028.44
2019-02-24T09:56:18.099Z,1028.43
2019-02-24T09:57:18.151Z,1028.45
2019-02-24T09:58:18.205Z,1028.44
2019-02-24T09:59:18.257Z,1028.41
2019-02-24T10:00:18.315Z,1028.35
2019-02-24T10:01:18.365Z,1028.35
2019-02-24T10:02:18.414Z,1028.34
2019-02-24T10:03:18.465Z,1028.32
2019-02-24T10:04:18.518Z,1028.31
2019-02-24T10:05:18.573Z,1028.23
2019-02-24T10:06:18.622Z,1028.22
2019-02-24T10:07:18.676Z,1028.22
2019-02-24T10:08:18.728Z,1028.22
2019-02-24T10:09:18.779Z,1028.25
2019-02-24T10:10:18.840Z,1028.23
2019-02-24T10:11:18.886Z,1028.23
2019-02-24T10:12:18.942Z,1028.21
2019-02-24T10:13:18.991Z,1028.20
2019-02-24T10:14:19.045Z,1028.21
2019-02-24T10:15:19.099Z,1028.22
2019-02-24T10:16:19.154Z,1028.21
2019-02-24T10:17:19.208Z,1028.20
2019-02-24T10:18:19.255Z,1028.23
2019-02-24T10:19:19.309Z,1028.25
2019-02-24T10:20:19.363Z,1028.25
2019-02-24T10:21:19.415Z,1028.28
2019-02-24T10:22:19.469Z,1028.26
2019-02-24T10:23:19.521Z,1028.26
2019-02-24T10:24:19.580Z,1028.29
2019-02-24T10:25:19.627Z,1028.26
2019-02-24T10:26:19.682Z,1028.25
2019-02-24T10:27:19.734Z,1028.28
2019-02-24T10:28:19.791Z,1028.30
2019-02-24T10:29:19.840Z,1028.28
2019-02-24T10:30:19.894Z,1028.26
2019-02-24T10:31:20.282Z,1028.29
2019-02-24T10:32:20.002Z,1028.31
2019-02-24T10:33:20.057Z,1028.33
2019-02-24T10:34:20.108Z,1028.23
2019-02-24T10:35:20.165Z,1028.27
2019-02-24T10:36:20.217Z,1028.29
2019-02-24T10:37:20.269Z,1028.26
2019-02-24T10:38:20.323Z,1028.26
2019-02-24T10:39:29.358Z,1028.30
2019-02-24T10:40:20.434Z,1028.29
2019-02-24T10:41:20.483Z,1028.31
2019-02-24T10:42:20.537Z,1028.28
2019-02-24T10:43:20.592Z,1028.29
2019-02-24T10:44:20.646Z,1028.27
2019-02-24T10:45:20.698Z,1028.25
2019-02-24T10:46:20.755Z,1028.28
2019-02-24T10:47:20.806Z,1028.31
2019-02-24T10:48:20.862Z,1028.31
2019-02-24T10:49:21.528Z,1028.29
2019-02-24T10:50:21.547Z,1028.34
2019-02-24T10:51:21.483Z,1028.31
2019-02-24T10:52:21.081Z,1028.34
2019-02-24T10:53:21.132Z,1028.37
2019-02-24T10:54:21.187Z,1028.34
2019-02-24T10:55:21.241Z,1028.38
2019-02-24T10:56:21.294Z,1028.31
2019-02-24T10:57:21.347Z,1028.32
2019-02-24T10:58:21.420Z,1028.30
2019-02-24T10:59:21.457Z,1028.29
2019-02-24T11:00:21.512Z,1028.26
2019-02-24T11:01:29.241Z,1028.24
2019-02-24T11:02:21.620Z,1028.26
2019-02-24T11:03:21.674Z,1028.23
2019-02-24T11:04:21.732Z,1028.23
2019-02-24T11:05:21.783Z,1028.22
2019-02-24T11:06:21.840Z,1028.23
2019-02-24T11:07:21.893Z,1028.27
2019-02-24T11:08:21.948Z,1028.24
2019-02-24T11:09:22.000Z,1028.22
2019-02-24T11:10:22.057Z,1028.21
2019-02-24T11:11:22.111Z,1028.17
2019-02-24T11:12:22.167Z,1028.13
2019-02-24T11:13:22.221Z,1028.14
2019-02-24T11:14:22.276Z,1028.10
2019-02-24T11:15:22.330Z,1028.08
2019-02-24T11:16:22.387Z,1028.06
2019-02-24T11:17:22.440Z,1028.06
2019-02-24T11:18:22.500Z,1028.08
2019-02-24T11:19:22.553Z,1028.05
2019-02-24T11:20:22.605Z,1028.03
2019-02-24T11:21:22.661Z,1028.02
2019-02-24T11:22:22.715Z,1027.99
2019-02-24T11:23:22.772Z,1028.02
2019-02-24T11:24:22.826Z,1027.99
2019-02-24T11:25:24.584Z,1028.02
2019-02-24T11:26:22.937Z,1028.09
2019-02-24T11:27:22.993Z,1028.08
2019-02-24T11:28:23.051Z,1028.26
2019-02-24T11:29:23.103Z,1028.72
2019-02-24T11:30:23.159Z,1029.07
2019-02-24T11:31:23.218Z,1029.03
2019-02-24T11:32:23.272Z,1029.01
2019-02-24T11:33:23.328Z,1029.01
2019-02-24T11:34:23.383Z,1029.00
2019-02-24T11:35:23.441Z,1029.03
2019-02-24T11:36:23.498Z,1029.00
2019-02-24T11:37:23.555Z,1028.99
2019-02-24T11:38:23.612Z,1028.96
2019-02-24T11:39:23.670Z,1028.94
2019-02-24T11:40:23.727Z,1028.94
2019-02-24T11:41:23.787Z,1028.91
2019-02-24T11:42:23.844Z,1028.93
2019-02-24T11:43:23.903Z,1028.88
2019-02-24T11:44:23.960Z,1028.90
2019-02-24T11:45:24.019Z,1028.92
2019-02-24T11:46:24.078Z,1028.91
2019-02-24T11:47:24.141Z,1028.85
2019-02-24T11:48:24.199Z,1028.88
2019-02-24T11:49:24.257Z,1028.87
2019-02-24T11:50:24.317Z,1028.90
2019-02-24T11:51:24.377Z,1028.83
2019-02-24T11:52:24.437Z,1028.81
2019-02-24T11:53:24.497Z,1028.81
2019-02-24T11:54:24.557Z,1028.81
2019-02-24T11:55:24.617Z,1028.79
2019-02-24T11:56:24.678Z,1028.83
2019-02-24T11:57:24.738Z,1028.79
2019-02-24T11:58:24.799Z,1028.82
2019-02-24T11:59:24.860Z,1028.81
2019-02-24T12:00:24.923Z,1028.81
2019-02-24T12:01:24.982Z,1028.82
2019-02-24T12:02:33.953Z,1028.82
2019-02-24T12:03:25.104Z,1028.85
2019-02-24T12:04:25.165Z,1028.84
2019-02-24T12:05:25.227Z,1028.86
2019-02-24T12:06:25.289Z,1028.92
2019-02-24T12:07:25.351Z,1028.91